Time;durP1;ratioP1;P1;durP2;ratioP2;P2;SDS_P1;SDS_P2;PMS_P1;PMS_P2;Temp;Humidity;BMP_temperature;BMP_pressure;BME280_temperature;BME280_humidity;BME280_pressure;Samples;Min_cycle;Max_cycle;Signal;HPM_P1;HPM_P2
2022/05/12 00:01:42;;;;;;;5.90;1.48;;;11.50;99.90;;;;;;5015629;28;20041;-79
2022/05/12 00:04:07;;;;;;;5.10;1.35;;;11.50;99.90;;;;;;5016848;28;20128;-79
2022/05/12 00:06:33;;;;;;;6.13;1.27;;;11.50;99.90;;;;;;5019903;28;20049;-79
2022/05/12 00:08:59;;;;;;;8.38;1.30;;;11.50;99.90;;;;;;5037266;28;20084;-80
2022/05/12 00:11:24;;;;;;;3.65;1.15;;;11.40;99.90;;;;;;5019585;28;20131;-79
2022/05/12 00:13:50;;;;;;;4.85;1.00;;;11.40;99.90;;;;;;5019346;28;20045;-80
2022/05/12 00:16:15;;;;;;;6.55;1.38;;;11.50;99.90;;;;;;5019345;28;20049;-80
2022/05/12 00:18:41;;;;;;;2.85;1.10;;;11.40;99.90;;;;;;5019345;28;20169;-80
2022/05/12 00:21:07;;;;;;;3.42;1.33;;;11.40;99.90;;;;;;5019326;28;20045;-81
2022/05/12 00:23:32;;;;;;;8.20;1.40;;;11.30;99.90;;;;;;5019647;28;20056;-80
2022/05/12 00:26:00;;;;;;;4.90;1.10;;;11.30;99.90;;;;;;5019190;28;20056;-80
2022/05/12 00:28:27;;;;;;;6.30;1.30;;;11.30;99.90;;;;;;5019149;28;20037;-79
2022/05/12 00:30:55;;;;;;;4.72;1.48;;;11.30;99.90;;;;;;5019109;28;20404;-79
2022/05/12 00:33:22;;;;;;;4.50;1.30;;;11.30;99.90;;;;;;5018971;28;20393;-79
2022/05/12 00:35:48;;;;;;;5.40;1.40;;;11.30;99.90;;;;;;5019146;28;20053;-79
2022/05/12 00:38:14;;;;;;;4.75;1.23;;;11.30;99.90;;;;;;5036502;28;20045;-80
2022/05/12 00:40:42;;;;;;;5.30;1.75;;;11.30;99.90;;;;;;5018890;28;20046;-80
2022/05/12 00:43:42;;;;;;;8.68;1.92;;;11.30;99.90;;;;;;5019089;28;20512;-80
2022/05/12 00:46:12;;;;;;;5.88;1.55;;;11.30;99.90;;;;;;5036473;28;20096;-80
2022/05/12 00:48:39;;;;;;;4.75;1.30;;;11.30;99.90;;;;;;5019113;28;20045;-80
2022/05/12 00:51:07;;;;;;;7.38;1.50;;;11.20;99.90;;;;;;5036550;28;20045;-80
2022/05/12 00:53:35;;;;;;;6.45;1.40;;;11.20;99.90;;;;;;5036217;28;20052;-80
2022/05/12 00:56:03;;;;;;;10.10;2.42;;;11.30;99.90;;;;;;5036393;28;20046;-80
2022/05/12 00:58:34;;;;;;;5.85;1.42;;;11.30;99.90;;;;;;5018631;28;20054;-80
2022/05/12 01:01:03;;;;;;;10.25;2.67;;;11.20;99.90;;;;;;5036163;28;20488;-80
2022/05/12 01:03:40;;;;;;;9.40;2.03;;;11.20;99.90;;;;;;5036331;28;20045;-80
2022/05/12 01:06:09;;;;;;;8.07;1.98;;;11.20;99.90;;;;;;5018410;28;20049;-80
2022/05/12 01:08:38;;;;;;;4.95;2.08;;;11.20;99.90;;;;;;5018438;28;20056;-80
2022/05/12 01:11:10;;;;;;;3.97;1.50;;;11.20;99.90;;;;;;5036167;28;20084;-80
2022/05/12 01:13:39;;;;;;;7.63;2.33;;;11.20;99.90;;;;;;5018383;28;20497;-80
2022/05/12 01:16:05;;;;;;;6.72;1.85;;;11.10;99.90;;;;;;5017941;28;20057;-80
2022/05/12 01:18:33;;;;;;;7.93;2.08;;;11.10;99.90;;;;;;5018484;28;20050;-81
2022/05/12 01:20:59;;;;;;;6.13;2.13;;;11.10;99.90;;;;;;5018217;28;20048;-80
2022/05/12 01:23:26;;;;;;;9.10;2.47;;;11.10;99.90;;;;;;5035915;28;20049;-79
2022/05/12 01:25:58;;;;;;;8.57;2.20;;;11.10;99.90;;;;;;5017811;28;20233;-80
2022/05/12 01:28:26;;;;;;;8.50;2.60;;;11.10;99.90;;;;;;5018238;28;20061;-79
2022/05/12 01:30:52;;;;;;;8.05;2.78;;;11.10;99.90;;;;;;5018169;28;20064;-79
2022/05/12 01:33:18;;;;;;;9.13;2.60;;;11.00;99.90;;;;;;5017859;28;20404;-79
2022/05/12 01:35:44;;;;;;;9.27;2.60;;;10.90;99.90;;;;;;5035618;28;20052;-79
2022/05/12 01:38:10;;;;;;;9.27;3.28;;;10.90;99.90;;;;;;5051616;23;20051;-79
2022/05/12 01:40:35;;;;;;;10.10;2.60;;;10.90;99.90;;;;;;5035578;28;20401;-79
2022/05/12 01:43:01;;;;;;;8.82;2.42;;;10.90;99.90;;;;;;5037765;28;20102;-79
2022/05/12 01:45:27;;;;;;;11.18;3.50;;;10.90;99.90;;;;;;5037507;28;20041;-79
2022/05/12 01:47:53;;;;;;;9.80;3.13;;;10.80;99.90;;;;;;5037572;28;20098;-79
2022/05/12 01:50:19;;;;;;;8.68;3.00;;;10.80;99.90;;;;;;5037148;28;20037;-79
2022/05/12 01:52:45;;;;;;;11.18;2.67;;;10.80;99.90;;;;;;5055209;28;20396;-79
2022/05/12 01:55:13;;;;;;;11.65;3.10;;;10.70;99.90;;;;;;5037565;28;20049;-79
2022/05/12 01:57:43;;;;;;;12.52;3.03;;;10.70;99.90;;;;;;5037154;28;20045;-79
2022/05/12 02:00:12;;;;;;;11.65;2.97;;;10.70;99.90;;;;;;5037553;28;20041;-79
2022/05/12 02:02:38;;;;;;;9.88;2.90;;;10.70;99.90;;;;;;5037523;28;20044;-79
2022/05/12 02:05:09;;;;;;;9.88;3.45;;;10.70;99.90;;;;;;5037361;28;20507;-79
2022/05/12 02:07:36;;;;;;;13.07;3.13;;;10.70;99.90;;;;;;5055074;28;20052;-80
2022/05/12 02:10:06;;;;;;;9.50;3.55;;;10.70;99.90;;;;;;5037640;28;20045;-79
2022/05/12 02:12:32;;;;;;;10.85;3.30;;;10.70;99.90;;;;;;5036999;28;20048;-79
2022/05/12 02:14:57;;;;;;;14.82;3.40;;;10.60;99.90;;;;;;5037069;28;20404;-79
2022/05/12 02:17:23;;;;;;;12.23;3.38;;;10.60;99.90;;;;;;5037258;28;20053;-79
2022/05/12 02:19:49;;;;;;;10.23;3.40;;;10.60;99.90;;;;;;5037243;28;20049;-79
2022/05/12 02:22:14;;;;;;;10.98;3.40;;;10.60;99.90;;;;;;5036866;28;20052;-79
2022/05/12 02:24:40;;;;;;;9.32;4.38;;;10.50;99.90;;;;;;5054799;28;20080;-79
2022/05/12 02:27:06;;;;;;;14.77;3.40;;;10.50;99.90;;;;;;5036099;28;20052;-79
2022/05/12 02:29:32;;;;;;;10.63;3.50;;;10.40;99.90;;;;;;5036888;28;20044;-79
2022/05/12 02:31:58;;;;;;;13.02;3.95;;;10.40;99.90;;;;;;5036636;28;20489;-79
2022/05/12 02:34:23;;;;;;;11.32;3.60;;;10.40;99.90;;;;;;5036933;28;20045;-79
2022/05/12 02:37:01;;;;;;;17.73;4.85;;;10.30;99.90;;;;;;5054005;28;20516;-79
2022/05/12 02:39:30;;;;;;;14.45;4.00;;;10.30;99.90;;;;;;5036479;28;20469;-79
2022/05/12 02:41:55;;;;;;;14.98;4.45;;;10.20;99.90;;;;;;5036468;28;20049;-79
2022/05/12 02:44:21;;;;;;;9.50;4.68;;;10.20;99.90;;;;;;5036448;28;20053;-79
2022/05/12 02:46:47;;;;;;;13.50;4.35;;;10.10;99.90;;;;;;5036417;28;20056;-79
2022/05/12 02:49:13;;;;;;;11.57;4.13;;;10.10;99.90;;;;;;5036410;28;20059;-79
2022/05/12 02:51:38;;;;;;;12.73;4.35;;;10.10;99.90;;;;;;5054140;28;20076;-80
2022/05/12 02:54:04;;;;;;;11.77;3.88;;;10.00;99.90;;;;;;5054387;28;20091;-79
2022/05/12 02:56:30;;;;;;;14.15;4.40;;;10.10;99.90;;;;;;5036160;28;20465;-78
2022/05/12 02:58:55;;;;;;;11.50;3.97;;;10.00;99.90;;;;;;5036208;28;20045;-79
2022/05/12 03:01:21;;;;;;;15.38;4.53;;;10.00;99.90;;;;;;5054126;28;20106;-79
2022/05/12 03:03:47;;;;;;;12.30;4.15;;;9.90;99.90;;;;;;5036412;28;20404;-79
2022/05/12 03:06:12;;;;;;;9.60;4.22;;;9.90;99.90;;;;;;5036165;28;20049;-79
2022/05/12 03:08:42;;;;;;;17.67;4.72;;;9.90;99.90;;;;;;5035947;28;20055;-79
2022/05/12 03:11:09;;;;;;;9.55;4.40;;;9.90;99.90;;;;;;5035916;28;20119;-79
2022/05/12 03:13:35;;;;;;;16.70;4.72;;;9.90;99.90;;;;;;5035949;28;20473;-79
2022/05/12 03:16:01;;;;;;;13.65;4.97;;;9.80;99.90;;;;;;5053761;28;20105;-79
2022/05/12 03:18:27;;;;;;;14.95;4.97;;;9.90;99.90;;;;;;5035661;28;20102;-79
2022/05/12 03:20:52;;;;;;;15.75;5.47;;;9.80;99.90;;;;;;5035806;28;20081;-79
2022/05/12 03:23:22;;;;;;;12.25;4.82;;;9.80;99.90;;;;;;5036088;28;20072;-79
2022/05/12 03:25:48;;;;;;;16.02;4.72;;;9.80;99.90;;;;;;5035773;28;20084;-79
2022/05/12 03:28:14;;;;;;;15.13;5.22;;;9.80;99.90;;;;;;5053534;28;20041;-80
2022/05/12 03:30:42;;;;;;;19.08;6.25;;;9.80;99.90;;;;;;5035819;28;20048;-79
2022/05/12 03:33:09;;;;;;;14.82;5.72;;;9.70;99.90;;;;;;5053117;28;20380;-80
2022/05/12 03:35:36;;;;;;;15.98;5.35;;;9.70;99.90;;;;;;5052771;28;20116;-79
2022/05/12 03:38:03;;;;;;;16.63;5.35;;;9.70;99.90;;;;;;5033745;28;20052;-79
2022/05/12 03:40:30;;;;;;;15.40;5.35;;;9.70;99.90;;;;;;5035325;28;20053;-80
2022/05/12 03:42:59;;;;;;;12.07;5.03;;;9.70;99.90;;;;;;5035426;28;20060;-79
2022/05/12 03:45:29;;;;;;;16.48;5.80;;;9.70;99.90;;;;;;5053008;28;20546;-79
2022/05/12 03:47:57;;;;;;;13.30;5.22;;;9.60;99.90;;;;;;5035666;28;20064;-79
2022/05/12 03:50:26;;;;;;;15.43;6.13;;;9.60;99.90;;;;;;5035303;28;20412;-80
2022/05/12 03:52:53;;;;;;;14.20;6.78;;;9.60;99.90;;;;;;5035166;28;20092;-80
2022/05/12 03:55:22;;;;;;;15.23;6.05;;;9.60;99.90;;;;;;5053020;28;20549;-80
2022/05/12 03:57:51;;;;;;;16.50;6.40;;;9.60;99.90;;;;;;5035435;28;20059;-79
2022/05/12 04:00:21;;;;;;;21.52;6.70;;;9.60;99.90;;;;;;5035343;28;20049;-79
2022/05/12 04:02:47;;;;;;;12.98;5.55;;;9.60;99.90;;;;;;5035158;28;20048;-79
2022/05/12 04:05:14;;;;;;;15.30;6.22;;;9.60;99.90;;;;;;5053066;28;20056;-79
2022/05/12 04:07:42;;;;;;;14.10;6.00;;;9.70;99.90;;;;;;5035114;28;20396;-79
2022/05/12 04:10:08;;;;;;;14.27;5.82;;;9.60;99.90;;;;;;5053178;28;20048;-79
2022/05/12 04:12:34;;;;;;;18.80;6.88;;;9.60;99.90;;;;;;5035268;28;20556;-80
2022/05/12 04:15:00;;;;;;;16.75;6.53;;;9.70;99.90;;;;;;5035145;28;20087;-80
2022/05/12 04:17:25;;;;;;;18.05;6.95;;;9.70;99.90;;;;;;5035400;28;20084;-79
2022/05/12 04:19:52;;;;;;;23.02;7.47;;;9.70;99.90;;;;;;5034955;28;20051;-79
2022/05/12 04:22:18;;;;;;;18.33;7.47;;;9.80;99.90;;;;;;5035024;28;20045;-79
2022/05/12 04:24:45;;;;;;;13.98;7.05;;;9.80;99.90;;;;;;5034928;28;20053;-79
2022/05/12 04:27:12;;;;;;;18.25;7.10;;;9.90;99.90;;;;;;5035309;28;20044;-80
2022/05/12 04:29:42;;;;;;;17.83;7.35;;;9.90;99.90;;;;;;5034992;28;20037;-81
2022/05/12 04:32:08;;;;;;;17.70;8.00;;;10.00;99.90;;;;;;5035007;28;20124;-80
2022/05/12 04:37:28;;;;;;;21.60;6.97;;;10.10;99.90;;;;;;5052750;28;20049;-79
2022/05/12 04:39:54;;;;;;;22.23;8.65;;;10.30;99.90;;;;;;5052722;28;20102;-79
2022/05/12 04:42:19;;;;;;;15.15;7.50;;;10.30;99.90;;;;;;5034769;28;20049;-79
2022/05/12 04:44:45;;;;;;;17.30;7.93;;;10.40;99.90;;;;;;5034951;28;20045;-79
2022/05/12 04:47:10;;;;;;;20.83;7.35;;;10.50;99.90;;;;;;5034750;28;20052;-79
2022/05/12 04:49:36;;;;;;;14.77;8.00;;;10.60;99.90;;;;;;5035356;28;20040;-79
2022/05/12 04:52:02;;;;;;;23.10;8.23;;;10.70;99.90;;;;;;5038536;28;20450;-79
2022/05/12 04:54:29;;;;;;;19.77;7.90;;;10.90;99.90;;;;;;5056047;28;20037;-79
2022/05/12 04:56:56;;;;;;;16.52;7.25;;;11.00;99.90;;;;;;5038186;28;20122;-79
2022/05/12 04:59:22;;;;;;;16.60;8.07;;;11.10;99.90;;;;;;5038267;28;20056;-79
2022/05/12 05:01:48;;;;;;;18.20;7.35;;;11.20;99.90;;;;;;5038451;28;20498;-79
2022/05/12 05:04:13;;;;;;;19.63;7.88;;;11.20;99.90;;;;;;5038321;28;20124;-79
2022/05/12 05:06:39;;;;;;;14.43;7.18;;;11.30;99.90;;;;;;5056179;28;20041;-79
2022/05/12 05:09:06;;;;;;;17.52;6.85;;;11.30;99.90;;;;;;5038322;28;20044;-79
2022/05/12 05:11:36;;;;;;;19.38;7.22;;;11.40;99.90;;;;;;5037954;28;20127;-79
2022/05/12 05:14:02;;;;;;;17.65;6.82;;;11.40;99.90;;;;;;5038347;28;20045;-79
2022/05/12 05:16:28;;;;;;;23.30;7.53;;;11.40;99.90;;;;;;5037884;28;20041;-79
2022/05/12 05:18:53;;;;;;;16.60;7.28;;;11.50;99.90;;;;;;5055873;28;20048;-79
2022/05/12 05:21:19;;;;;;;15.98;7.20;;;11.60;99.90;;;;;;5055860;28;20041;-79
2022/05/12 05:23:45;;;;;;;13.43;7.13;;;11.70;99.90;;;;;;5038083;28;20037;-79
2022/05/12 05:26:11;;;;;;;16.35;6.57;;;11.90;99.90;;;;;;5037924;28;20097;-78
2022/05/12 05:28:37;;;;;;;18.25;5.95;;;11.90;99.90;;;;;;5038267;28;20048;-79
2022/05/12 05:31:04;;;;;;;17.50;6.80;;;12.10;99.90;;;;;;5037770;28;20040;-79
2022/05/12 05:33:30;;;;;;;14.65;6.10;;;12.10;99.90;;;;;;5037577;28;20045;-80
2022/05/12 05:35:57;;;;;;;13.80;5.82;;;12.30;99.90;;;;;;5037745;28;20452;-78
2022/05/12 05:38:23;;;;;;;14.52;6.32;;;12.40;99.90;;;;;;5037397;28;20575;-78
2022/05/12 05:40:48;;;;;;;16.90;6.45;;;12.60;99.90;;;;;;5037535;28;20393;-79
2022/05/12 05:43:14;;;;;;;15.20;5.60;;;12.70;99.90;;;;;;5037481;28;20052;-79
2022/05/12 05:45:41;;;;;;;13.48;5.75;;;12.80;99.90;;;;;;5037482;28;20048;-78
2022/05/12 05:48:07;;;;;;;19.95;5.75;;;12.90;99.90;;;;;;5037547;28;20059;-78
2022/05/12 05:53:24;;;;;;;14.93;5.78;;;13.10;99.90;;;;;;5037146;28;20416;-80
2022/05/12 05:55:54;;;;;;;16.35;5.13;;;13.20;99.90;;;;;;5055045;28;20539;-81
2022/05/12 05:58:20;;;;;;;17.38;5.22;;;13.30;99.90;;;;;;5037558;28;20480;-81
2022/05/12 06:00:46;;;;;;;13.15;5.00;;;13.40;99.90;;;;;;5036888;28;20512;-83
2022/05/12 06:03:13;;;;;;;14.43;4.78;;;13.50;99.90;;;;;;5036401;28;20044;-83
2022/05/12 06:05:38;;;;;;;14.35;5.40;;;13.60;99.90;;;;;;5054855;28;20053;-81
2022/05/12 06:08:05;;;;;;;13.50;5.03;;;13.70;99.90;;;;;;5030064;28;20056;-79
2022/05/12 06:10:31;;;;;;;13.15;4.90;;;13.90;99.90;;;;;;5039725;28;20052;-79
2022/05/12 06:12:57;;;;;;;11.38;4.60;;;14.00;99.90;;;;;;5034788;28;20056;-80
2022/05/12 06:15:25;;;;;;;14.70;5.40;;;14.20;99.90;;;;;;5016725;28;20049;-78
2022/05/12 06:17:51;;;;;;;13.48;5.05;;;14.30;99.90;;;;;;5016627;28;20038;-79
2022/05/12 06:20:17;;;;;;;12.75;4.35;;;14.40;99.90;;;;;;5017025;28;20056;-81
2022/05/12 06:22:43;;;;;;;10.60;4.20;;;14.60;99.90;;;;;;5017000;28;20046;-79
2022/05/12 06:25:12;;;;;;;9.85;4.47;;;14.50;99.90;;;;;;5033173;28;20044;-79
2022/05/12 06:27:37;;;;;;;13.68;5.70;;;14.60;99.90;;;;;;5016882;28;20145;-80
2022/05/12 06:30:07;;;;;;;16.02;5.65;;;14.70;99.90;;;;;;5016713;28;20556;-80
2022/05/12 06:32:33;;;;;;;15.43;4.57;;;14.80;99.90;;;;;;5016489;28;20054;-78
2022/05/12 06:34:58;;;;;;;13.18;4.15;;;14.90;99.90;;;;;;5017014;28;20099;-79
2022/05/12 06:37:24;;;;;;;14.57;4.07;;;15.10;99.90;;;;;;5016374;28;20111;-78
2022/05/12 06:39:50;;;;;;;15.13;4.78;;;15.20;99.90;;;;;;5033971;28;20045;-79
2022/05/12 06:42:15;;;;;;;14.73;4.43;;;15.20;99.90;;;;;;5016222;28;20055;-79
2022/05/12 06:44:44;;;;;;;14.65;4.00;;;15.30;99.90;;;;;;5033958;28;20076;-79
2022/05/12 06:47:11;;;;;;;23.27;4.40;;;15.30;99.90;;;;;;5016663;28;20448;-84
2022/05/12 06:49:37;;;;;;;12.10;4.05;;;15.50;99.90;;;;;;5016256;28;20103;-82
2022/05/12 06:52:05;;;;;;;13.60;4.45;;;15.30;99.90;;;;;;5033982;28;20048;-82
2022/05/12 06:54:32;;;;;;;21.88;3.60;;;15.40;99.90;;;;;;5034261;28;20037;-82
2022/05/12 06:56:58;;;;;;;17.33;3.95;;;15.50;99.90;;;;;;5016335;28;20057;-83
2022/05/12 06:59:23;;;;;;;20.80;5.32;;;15.50;99.90;;;;;;5016468;28;20053;-80
2022/05/12 07:01:49;;;;;;;17.65;3.70;;;15.50;99.90;;;;;;5033950;28;20077;-80
2022/05/12 07:04:14;;;;;;;19.52;4.68;;;15.50;99.90;;;;;;5016492;28;20099;-80
2022/05/12 07:06:40;;;;;;;22.85;4.07;;;15.50;99.90;;;;;;5016465;28;20503;-80
2022/05/12 07:09:06;;;;;;;15.27;3.30;;;15.60;99.90;;;;;;5033982;28;20049;-80
2022/05/12 07:11:31;;;;;;;13.07;3.67;;;15.80;99.90;;;;;;5016230;28;20041;-80
2022/05/12 07:13:57;;;;;;;11.93;3.13;;;15.90;99.90;;;;;;5015907;28;20187;-80
2022/05/12 07:16:22;;;;;;;20.65;3.17;;;15.80;99.90;;;;;;5015960;28;20037;-80
2022/05/12 07:18:49;;;;;;;18.67;4.22;;;15.90;99.90;;;;;;5016297;28;20088;-80
2022/05/12 07:26:47;;;;;;;20.23;4.45;;;16.20;99.90;;;;;;5016144;28;20110;-80
2022/05/12 07:29:19;;;;;;;19.45;4.32;;;16.20;99.90;;;;;;5015887;28;20045;-80
2022/05/12 07:31:45;;;;;;;16.02;3.95;;;16.30;99.90;;;;;;5016014;28;20076;-80
2022/05/12 07:34:12;;;;;;;14.65;3.70;;;16.40;99.90;;;;;;5016175;28;20400;-80
2022/05/12 07:36:42;;;;;;;13.95;4.00;;;16.40;99.90;;;;;;5015703;28;20061;-80
2022/05/12 07:39:08;;;;;;;14.88;3.85;;;16.60;99.90;;;;;;5015651;28;20156;-79
2022/05/12 07:41:34;;;;;;;16.60;4.13;;;16.70;99.90;;;;;;5015718;28;20046;-79
2022/05/12 07:44:00;;;;;;;16.30;3.42;;;16.90;99.90;;;;;;5016187;28;20050;-80
2022/05/12 07:46:30;;;;;;;18.30;3.72;;;16.90;99.90;;;;;;5033558;28;20102;-80
2022/05/12 07:48:56;;;;;;;20.45;4.88;;;16.90;99.90;;;;;;5015670;28;20147;-80
2022/05/12 07:51:22;;;;;;;17.90;3.50;;;17.00;99.90;;;;;;5015796;28;20099;-80
2022/05/12 07:53:49;;;;;;;14.02;3.97;;;17.00;99.90;;;;;;5033365;28;20504;-80
2022/05/12 07:56:18;;;;;;;15.02;3.88;;;17.00;99.90;;;;;;5015860;28;20041;-80
2022/05/12 07:58:44;;;;;;;19.00;3.42;;;17.00;99.90;;;;;;5015859;28;20052;-80
2022/05/12 08:01:12;;;;;;;13.38;3.08;;;17.20;99.90;;;;;;5015443;28;20054;-80
2022/05/12 08:03:38;;;;;;;15.13;3.72;;;17.20;99.90;;;;;;5033370;28;20179;-80
2022/05/12 08:06:04;;;;;;;15.38;3.63;;;17.20;99.90;;;;;;5015483;28;20060;-80
2022/05/12 08:08:30;;;;;;;17.27;4.15;;;17.30;99.90;;;;;;5033339;28;20041;-80
2022/05/12 08:10:55;;;;;;;13.98;3.78;;;17.40;99.90;;;;;;5015241;28;20428;-80
2022/05/12 08:13:22;;;;;;;16.10;3.95;;;17.40;99.90;;;;;;5015071;28;20057;-80
2022/05/12 08:15:50;;;;;;;14.85;4.15;;;17.60;99.90;;;;;;5015329;28;20560;-79
2022/05/12 08:18:17;;;;;;;18.92;4.13;;;17.70;99.90;;;;;;5015621;28;20046;-80
2022/05/12 08:20:46;;;;;;;12.40;3.45;;;17.90;99.90;;;;;;5015469;28;20104;-80
2022/05/12 08:23:12;;;;;;;14.25;3.35;;;17.80;99.90;;;;;;5015348;28;20092;-80
2022/05/12 08:25:38;;;;;;;15.88;4.45;;;18.00;99.90;;;;;;5034752;28;20467;-80
2022/05/12 08:28:04;;;;;;;13.45;3.45;;;17.90;99.90;;;;;;5019294;28;20477;-80
2022/05/12 08:30:31;;;;;;;15.52;2.92;;;18.20;99.90;;;;;;5019050;28;20050;-80
2022/05/12 08:32:57;;;;;;;11.32;3.03;;;18.10;99.90;;;;;;5018817;28;20099;-80
2022/05/12 08:35:24;;;;;;;12.00;3.15;;;18.20;99.90;;;;;;5018952;28;20049;-80
2022/05/12 08:37:50;;;;;;;15.20;2.72;;;18.20;99.90;;;;;;5018795;28;20068;-80
2022/05/12 08:40:25;;;;;;;13.55;3.15;;;18.30;99.90;;;;;;5018889;28;20124;-80
2022/05/12 08:42:50;;;;;;;14.00;2.95;;;18.00;99.90;;;;;;5019104;28;20053;-80
2022/05/12 08:45:18;;;;;;;12.32;2.47;;;18.00;99.90;;;;;;5036576;28;20045;-80
2022/05/12 08:47:47;;;;;;;12.98;2.88;;;18.10;99.90;;;;;;5018874;28;20497;-79
2022/05/12 08:50:24;;;;;;;12.35;3.78;;;18.20;99.90;;;;;;5036383;28;20049;-80
2022/05/12 08:53:02;;;;;;;11.18;3.10;;;18.20;99.90;;;;;;5036401;28;20041;-80
2022/05/12 08:55:33;;;;;;;9.23;2.90;;;18.30;99.90;;;;;;5018845;28;20077;-80
2022/05/12 08:58:04;;;;;;;18.23;3.10;;;18.40;99.90;;;;;;5018462;28;20501;-80
2022/05/12 09:00:47;;;;;;;15.20;3.40;;;18.60;99.90;;;;;;5018833;28;20558;-80
2022/05/12 09:03:34;;;;;;;13.20;3.33;;;18.70;99.90;;;;;;5018475;28;20050;-80
2022/05/12 09:06:09;;;;;;;14.55;3.00;;;18.80;99.90;;;;;;5018639;28;20042;-80
2022/05/12 09:08:45;;;;;;;8.65;2.40;;;19.10;99.90;;;;;;5018237;28;20049;-80
2022/05/12 09:11:20;;;;;;;14.50;4.15;;;19.20;99.90;;;;;;5018452;28;20084;-80
2022/05/12 09:13:49;;;;;;;12.85;3.35;;;19.30;99.90;;;;;;5018211;28;20073;-80
2022/05/12 09:16:28;;;;;;;15.77;2.72;;;19.10;99.90;;;;;;5035888;28;20052;-80
2022/05/12 09:18:54;;;;;;;11.73;3.05;;;19.00;99.90;;;;;;5017935;28;20103;-80
2022/05/12 09:21:33;;;;;;;11.70;2.95;;;19.10;99.90;;;;;;5018352;28;20049;-80
2022/05/12 09:23:59;;;;;;;8.20;2.85;;;19.20;99.90;;;;;;5018310;28;20045;-80
2022/05/12 09:26:39;;;;;;;20.83;3.25;;;19.40;99.90;;;;;;5018120;28;20393;-80
2022/05/12 09:29:10;;;;;;;14.80;3.38;;;19.40;99.90;;;;;;5018003;28;20049;-80
2022/05/12 09:31:37;;;;;;;10.90;3.40;;;19.30;99.90;;;;;;5017863;28;20045;-80
2022/05/12 09:34:20;;;;;;;11.80;3.25;;;19.30;99.90;;;;;;5017966;28;20056;-80
2022/05/12 09:36:46;;;;;;;;;;;19.20;99.90;;;;;;5018032;28;20058;-80
2022/05/12 09:39:31;;;;;;;12.80;3.67;;;19.30;99.90;;;;;;5035450;28;20020;-80
2022/05/12 09:41:58;;;;;;;20.50;3.50;;;19.20;99.90;;;;;;5017530;28;20500;-80
2022/05/12 09:44:27;;;;;;;11.85;2.92;;;19.20;99.90;;;;;;5035541;28;20038;-80
2022/05/12 09:46:58;;;;;;;10.77;3.35;;;19.30;99.90;;;;;;5035541;28;20116;-80
2022/05/12 09:49:30;;;;;;;9.60;2.85;;;19.40;99.90;;;;;;5035476;28;20111;-80
2022/05/12 09:51:56;;;;;;;9.50;3.45;;;19.50;99.90;;;;;;5017741;28;20054;-80
2022/05/12 09:54:29;;;;;;;11.60;3.33;;;19.70;99.90;;;;;;5017733;28;20060;-80
2022/05/12 09:57:10;;;;;;;10.50;3.28;;;19.80;99.90;;;;;;5017433;28;20132;-80
2022/05/12 09:59:37;;;;;;;13.60;3.30;;;19.80;99.90;;;;;;5035263;28;20046;-80
2022/05/12 10:08:26;;;;;;;9.45;2.53;;;20.20;99.90;;;;;;5017164;28;20137;-81
2022/05/12 10:11:00;;;;;;;7.32;2.38;;;20.20;99.90;;;;;;5017338;28;20536;-81
2022/05/12 10:13:46;;;;;;;13.13;3.10;;;20.00;99.90;;;;;;5016998;28;20052;-81
2022/05/12 10:16:15;;;;;;;8.90;2.42;;;19.90;99.90;;;;;;5017135;28;20094;-81
2022/05/12 10:18:51;;;;;;;8.50;3.00;;;19.90;99.90;;;;;;5017323;28;20049;-81
2022/05/12 10:21:42;;;;;;;14.65;3.58;;;20.00;99.90;;;;;;5017140;28;20396;-81
2022/05/12 10:24:17;;;;;;;8.90;2.50;;;19.70;99.90;;;;;;5016936;28;20053;-81
2022/05/12 10:26:58;;;;;;;10.80;3.25;;;19.70;99.90;;;;;;5034732;28;20045;-81
2022/05/12 10:29:50;;;;;;;15.73;3.95;;;19.70;99.90;;;;;;5017049;28;20060;-81
2022/05/12 10:32:16;;;;;;;14.25;3.00;;;19.80;99.90;;;;;;5016769;28;20048;-81
2022/05/12 10:34:41;;;;;;;19.23;4.80;;;20.10;99.90;;;;;;5016573;28;20072;-81
2022/05/12 10:37:45;;;;;;;10.60;3.28;;;20.10;99.90;;;;;;5016813;28;20053;-81
2022/05/12 10:40:36;;;;;;;13.05;3.10;;;20.10;99.90;;;;;;5034254;28;20551;-81
2022/05/12 10:43:04;;;;;;;7.07;2.67;;;20.10;99.90;;;;;;5016875;28;20053;-81
2022/05/12 10:45:41;;;;;;;11.57;3.25;;;20.10;99.90;;;;;;5016703;28;20115;-81
2022/05/12 10:48:40;;;;;;;9.00;3.17;;;20.10;99.90;;;;;;5016252;28;20096;-81
2022/05/12 10:51:16;;;;;;;17.27;3.47;;;19.70;99.90;;;;;;5016504;28;20049;-81
2022/05/12 10:54:17;;;;;;;9.40;3.03;;;20.10;99.90;;;;;;5016316;28;20049;-81
2022/05/12 10:56:52;;;;;;;10.27;3.63;;;20.00;99.90;;;;;;5016271;28;20045;-81
2022/05/12 10:59:41;;;;;;;10.02;3.22;;;20.00;99.90;;;;;;5016309;28;20045;-81
2022/05/12 11:02:21;;;;;;;12.52;4.13;;;19.70;99.90;;;;;;5016173;28;20440;-81
2022/05/12 11:05:03;;;;;;;13.77;4.57;;;19.40;99.90;;;;;;5016296;28;20378;-81
2022/05/12 11:07:35;;;;;;;9.00;3.80;;;19.20;99.90;;;;;;5016471;28;20484;-81
2022/05/12 11:10:32;;;;;;;15.77;4.05;;;19.10;99.90;;;;;;5016527;28;20394;-81
2022/05/12 11:13:19;;;;;;;14.77;4.93;;;19.10;99.90;;;;;;5016084;28;20077;-81
2022/05/12 11:16:13;;;;;;;13.05;4.20;;;19.00;99.90;;;;;;5016316;28;20080;-81
2022/05/12 11:18:49;;;;;;;11.63;3.85;;;19.10;99.90;;;;;;5016343;28;20489;-81
2022/05/12 11:21:17;;;;;;;13.43;4.72;;;19.40;99.90;;;;;;5016325;28;20037;-81
2022/05/12 11:24:04;;;;;;;11.30;3.03;;;19.80;99.90;;;;;;5016400;28;20060;-81
2022/05/12 11:26:48;;;;;;;11.93;4.75;;;20.20;99.90;;;;;;5016148;28;20539;-81
2022/05/12 11:29:44;;;;;;;13.68;4.18;;;20.40;99.90;;;;;;5016004;28;20451;-80
2022/05/12 11:32:15;;;;;;;14.13;4.28;;;20.60;99.90;;;;;;5015847;28;20495;-80
2022/05/12 11:34:54;;;;;;;12.90;4.50;;;20.50;99.90;;;;;;5033744;28;20049;-81
2022/05/12 11:37:37;;;;;;;11.90;4.70;;;20.60;99.90;;;;;;5033230;28;20085;-81
2022/05/12 11:40:13;;;;;;;11.35;3.47;;;20.70;99.90;;;;;;5015371;28;20049;-81
2022/05/12 11:45:48;;;;;;;11.65;4.07;;;21.10;99.90;;;;;;5014860;28;20059;-80
2022/05/12 11:48:33;;;;;;;12.75;3.60;;;21.00;99.90;;;;;;5032551;28;20448;-80
2022/05/12 11:51:07;;;;;;;15.77;4.53;;;21.20;99.90;;;;;;5032385;28;20038;-81
2022/05/12 11:53:59;;;;;;;14.05;4.03;;;21.30;97.30;;;;;;5032527;28;20489;-81
2022/05/12 11:56:36;;;;;;;12.88;3.05;;;21.20;97.00;;;;;;5032761;28;20114;-81
2022/05/12 11:59:19;;;;;;;10.95;4.20;;;21.40;98.60;;;;;;5014769;28;20051;-81
2022/05/12 12:01:49;;;;;;;8.18;3.58;;;20.80;97.20;;;;;;5018443;28;20049;-80
2022/05/12 12:04:15;;;;;;;13.13;3.72;;;20.90;99.90;;;;;;5018409;28;20562;-80
2022/05/12 12:06:43;;;;;;;10.52;2.80;;;21.10;99.90;;;;;;5018352;28;20042;-81
2022/05/12 12:09:36;;;;;;;17.55;3.83;;;21.10;97.70;;;;;;5018077;28;20128;-80
2022/05/12 12:12:08;;;;;;;10.95;3.33;;;21.00;96.30;;;;;;5035960;28;20037;-80
2022/05/12 12:14:43;;;;;;;13.13;3.58;;;21.10;98.80;;;;;;5018047;28;20524;-80
2022/05/12 12:17:14;;;;;;;14.02;3.53;;;20.80;96.80;;;;;;5018162;28;20049;-80
2022/05/12 12:19:52;;;;;;;10.37;3.37;;;20.40;99.70;;;;;;5035962;28;20046;-81
2022/05/12 12:22:48;;;;;;;12.00;3.72;;;20.50;98.30;;;;;;5035633;28;20076;-81
2022/05/12 12:25:19;;;;;;;14.57;3.92;;;20.90;99.90;;;;;;5018068;28;20050;-81
2022/05/12 12:28:10;;;;;;;12.93;4.10;;;20.90;97.50;;;;;;5018174;28;20053;-81
2022/05/12 12:30:49;;;;;;;15.10;4.25;;;20.70;97.10;;;;;;5035877;28;20045;-81
2022/05/12 12:33:25;;;;;;;8.60;4.15;;;20.70;98.40;;;;;;5036065;28;20169;-81
2022/05/12 12:36:03;;;;;;;11.27;3.97;;;20.40;98.50;;;;;;5018104;28;20061;-80
2022/05/12 12:38:47;;;;;;;15.40;3.75;;;20.50;99.90;;;;;;4981346;28;1078440;-80
2022/05/12 12:41:29;;;;;;;13.68;3.80;;;20.20;98.00;;;;;;5019319;28;20124;-80
2022/05/12 12:44:14;;;;;;;21.05;3.97;;;20.30;99.90;;;;;;5036955;28;20059;-80
2022/05/12 12:46:52;;;;;;;16.80;4.13;;;20.70;99.90;;;;;;5036809;28;20049;-80
2022/05/12 12:49:24;;;;;;;13.15;3.40;;;20.40;99.40;;;;;;5018976;28;20053;-80
2022/05/12 12:52:10;;;;;;;9.95;3.60;;;20.50;99.90;;;;;;5018827;28;20057;-80
2022/05/12 12:57:43;;;;;;;7.38;2.63;;;20.60;99.10;;;;;;5036918;28;20052;-81
2022/05/12 13:00:29;;;;;;;17.17;3.80;;;20.80;97.30;;;;;;5018270;28;20046;-81
2022/05/12 13:03:08;;;;;;;13.30;3.22;;;20.90;95.40;;;;;;5018531;28;20088;-80
2022/05/12 13:05:36;;;;;;;16.48;3.75;;;20.90;96.40;;;;;;5036439;28;20116;-80
2022/05/12 13:08:27;;;;;;;27.52;4.13;;;20.90;98.40;;;;;;5018425;28;20042;-80
2022/05/12 13:11:00;;;;;;;13.75;4.10;;;20.90;96.20;;;;;;5018052;28;20119;-80
2022/05/12 13:13:27;;;;;;;14.57;3.58;;;20.40;95.50;;;;;;5036223;28;20045;-81
2022/05/12 13:16:04;;;;;;;14.02;4.35;;;20.30;99.10;;;;;;5018190;28;20432;-80
2022/05/12 13:18:43;;;;;;;17.33;3.45;;;20.30;97.90;;;;;;5036008;28;20058;-79
2022/05/12 13:21:25;;;;;;;21.73;3.60;;;20.00;97.10;;;;;;5018409;28;20045;-79